Polock, Belarus

4:00 PM MSK on July 27, 2016 (GMT +0300)
Vitebsk | | Change Station

Elev 577 ft 55.17 °N, 30.22 °E | Updated 30 minutes ago

Scattered Clouds
Scattered Clouds
81 °F
Feels Like 82 °F
N
4
Wind Variable Wind from WNW

Today
High -- | Low -- °F
--% Chance of Precip.
Yesterday
High -- | Low -- °F
Precip. -- in
Pressure 30.01 in
Visibility 4.3 miles
Clouds Scattered Clouds 3000 ft
Heat Index 82 °F
Dew Point 64 °F
Humidity 58%
Rainfall 0.00 in
Snow Depth Not available.
5:03 AM 9:18 PM
Last Quarter, 43% visible
METAR UMII 271230Z 30002MPS 7000 SCT030 27/18 Q1016 R23/CLRD// NOSIG
Pressure 30.01 in
Visibility 4.3 miles
Clouds Scattered Clouds 3000 ft
Heat Index 82 °F
Dew Point 64 °F
Humidity 58%
Rainfall 0.00 in
Snow Depth Not available.
5:03 AM 9:18 PM
Last Quarter, 43% visible
METAR UMII 271230Z 30002MPS 7000 SCT030 27/18 Q1016 R23/CLRD// NOSIG

10-Day Weather Forecast

×

Almanac

Astronomy

Jul. 27, 2016 Rise Set
Actual Time
Civil Twilight
Nautical Twilight
Astronomical Twilight
Moon
Length of Visible Light
Length of Day
Tomorrow will be .
, % of the Moon is Illuminated

Today's Extremes

Country Highs Country Lows

Community

WunderPhotos

Upload Photos

1,927,841 photos uploaded!

WunderBlog® & News

Nearby

Air Quality

  Air Quality AQ Index Pollutant
Not available.

Snow Depth

Station Depth Elevation

Earthquake Activity

City Distance Mag. Time & Date
Minimum magnitude displayed is 2.5.

Coastal Water Temperatures

Place Temperature

Stations

Nearby Weather Stations

Station Location Temp. Windchill Dew Point Humidity Wind Precip. Elev Updated Type